Time;durP1;ratioP1;P1;durP2;ratioP2;P2;SDS_P1;SDS_P2;PMS_P1;PMS_P2;Temp;Humidity;BMP_temperature;BMP_pressure;BME280_temperature;BME280_humidity;BME280_pressure;Samples;Min_cycle;Max_cycle;Signal;HPM_P1;HPM_P2
2024/03/17 00:00:18;;;;;;;11.40;4.82;;;9.10;99.90;;;;;;5129428;27;20035;-92
2024/03/17 00:02:44;;;;;;;12.23;5.80;;;9.00;99.90;;;;;;5154513;27;20622;-92
2024/03/17 00:05:10;;;;;;;15.43;5.57;;;9.10;99.90;;;;;;5136796;27;20114;-90
2024/03/17 00:07:35;;;;;;;7.43;5.45;;;9.30;99.90;;;;;;5134428;27;20110;-90
2024/03/17 00:10:01;;;;;;;12.25;5.90;;;9.00;99.90;;;;;;5134397;27;20027;-90
2024/03/17 00:12:26;;;;;;;13.32;5.65;;;9.00;99.90;;;;;;5134432;27;20476;-89
2024/03/17 00:14:52;;;;;;;12.57;5.43;;;9.00;99.90;;;;;;5134430;27;20024;-90
2024/03/17 00:17:20;;;;;;;11.75;5.35;;;9.00;99.90;;;;;;5134491;27;20107;-94
2024/03/17 00:19:46;;;;;;;11.20;5.43;;;9.10;99.90;;;;;;5134307;27;20027;-91
2024/03/17 00:22:15;;;;;;;12.88;6.10;;;9.00;99.90;;;;;;5138053;28;20027;-93
2024/03/17 00:24:42;;;;;;;10.30;5.60;;;9.00;99.90;;;;;;5146731;27;20166;-93
2024/03/17 00:27:08;;;;;;;11.50;6.15;;;9.10;99.90;;;;;;5136659;28;20023;-92
2024/03/17 00:29:33;;;;;;;11.35;6.05;;;9.10;99.90;;;;;;5134301;28;20492;-93
2024/03/17 00:31:59;;;;;;;13.43;4.75;;;9.10;99.90;;;;;;5138654;28;20408;-92
2024/03/17 00:34:24;;;;;;;12.32;5.55;;;9.10;99.90;;;;;;5134221;28;20067;-90
2024/03/17 00:36:51;;;;;;;15.38;5.20;;;9.00;99.90;;;;;;5135727;28;20030;-92
2024/03/17 00:39:17;;;;;;;9.98;5.85;;;9.00;99.90;;;;;;5133739;28;20028;-91
2024/03/17 00:41:43;;;;;;;12.15;6.00;;;8.90;99.90;;;;;;5114224;28;20038;-93
2024/03/17 00:44:09;;;;;;;10.60;5.60;;;8.90;99.90;;;;;;5128128;28;20025;-90
2024/03/17 00:46:34;;;;;;;10.23;5.32;;;9.00;99.90;;;;;;5134535;28;20087;-91
2024/03/17 00:49:00;;;;;;;11.88;5.63;;;8.90;99.90;;;;;;5134357;28;20494;-92
2024/03/17 00:51:26;;;;;;;12.02;5.65;;;8.90;99.90;;;;;;5117727;28;20031;-91
2024/03/17 00:53:52;;;;;;;8.20;4.82;;;8.90;99.90;;;;;;5130282;28;20050;-93
2024/03/17 00:56:17;;;;;;;15.32;5.28;;;8.90;99.90;;;;;;5113212;28;20032;-92
2024/03/17 00:58:44;;;;;;;7.80;4.32;;;8.90;99.90;;;;;;5113309;28;20028;-93
2024/03/17 01:01:10;;;;;;;9.80;5.68;;;9.30;99.90;;;;;;5113687;28;20042;-89
2024/03/17 01:03:35;;;;;;;14.35;4.80;;;8.90;99.90;;;;;;5120233;27;20019;-89
2024/03/17 01:06:04;;;;;;;12.40;5.20;;;8.90;99.90;;;;;;5154254;27;20057;-90
2024/03/17 01:08:30;;;;;;;12.07;5.35;;;8.90;99.90;;;;;;5153343;27;20121;-90
2024/03/17 01:10:55;;;;;;;8.90;5.35;;;8.90;99.90;;;;;;5139354;27;20157;-91
2024/03/17 01:13:21;;;;;;;8.15;5.10;;;8.90;99.90;;;;;;5123407;28;20402;-90
2024/03/17 01:15:51;;;;;;;8.55;5.57;;;8.80;99.90;;;;;;5132765;28;20475;-91
2024/03/17 01:18:17;;;;;;;10.45;5.10;;;8.90;99.90;;;;;;5151541;28;20038;-91
2024/03/17 01:20:43;;;;;;;6.85;5.32;;;8.80;99.90;;;;;;5135079;28;20043;-92
2024/03/17 01:23:08;;;;;;;9.18;5.60;;;8.90;99.90;;;;;;5133512;28;20026;-91
2024/03/17 01:25:37;;;;;;;5.85;5.20;;;8.80;99.90;;;;;;5134948;27;20031;-89
2024/03/17 01:28:06;;;;;;;10.00;5.10;;;9.30;99.90;;;;;;5140663;27;20016;-89
2024/03/17 01:30:35;;;;;;;11.40;5.75;;;8.90;99.90;;;;;;5130786;28;20023;-89
2024/03/17 01:33:01;;;;;;;8.07;4.88;;;8.80;99.90;;;;;;5134487;28;20024;-90
2024/03/17 01:35:26;;;;;;;12.75;5.72;;;9.50;99.90;;;;;;5124457;27;20023;-91
2024/03/17 01:37:52;;;;;;;13.85;5.68;;;8.90;99.90;;;;;;5116715;28;20027;-90
2024/03/17 01:40:18;;;;;;;9.93;4.68;;;8.80;99.90;;;;;;5115922;28;20035;-90
2024/03/17 01:42:43;;;;;;;11.02;5.47;;;8.80;99.90;;;;;;5128842;27;20019;-89
2024/03/17 01:45:28;;;;;;;7.47;5.38;;;8.80;99.90;;;;;;5136909;27;20035;-90
2024/03/17 01:47:57;;;;;;;6.60;5.05;;;8.80;99.90;;;;;;5136300;27;20505;-90
2024/03/17 01:50:24;;;;;;;8.85;5.07;;;8.80;99.90;;;;;;5136811;27;20470;-90
2024/03/17 01:52:53;;;;;;;10.98;5.90;;;8.90;99.90;;;;;;5136858;27;20466;-91
2024/03/17 01:55:18;;;;;;;7.70;5.13;;;8.90;99.90;;;;;;5137164;27;20063;-91
2024/03/17 01:57:44;;;;;;;6.35;5.28;;;9.80;99.90;;;;;;5137543;27;20053;-91
2024/03/17 02:00:12;;;;;;;9.45;5.90;;;8.80;99.90;;;;;;5120666;27;20081;-92
2024/03/17 02:02:38;;;;;;;8.35;5.65;;;8.80;99.90;;;;;;5133997;27;20034;-92
2024/03/17 02:05:04;;;;;;;8.35;5.43;;;8.80;99.90;;;;;;5137376;27;20027;-92
2024/03/17 02:07:29;;;;;;;9.35;5.50;;;8.80;99.90;;;;;;5137340;27;20465;-92
2024/03/17 02:09:56;;;;;;;7.28;5.25;;;8.80;99.90;;;;;;5138375;27;20076;-92
2024/03/17 02:12:23;;;;;;;7.60;5.60;;;8.80;99.90;;;;;;5131232;27;20027;-90
2024/03/17 02:14:48;;;;;;;8.45;6.13;;;8.80;99.90;;;;;;5118513;28;20110;-90
2024/03/17 02:17:14;;;;;;;6.55;4.88;;;8.80;99.90;;;;;;5116524;28;20055;-90
2024/03/17 02:19:39;;;;;;;7.18;5.20;;;8.90;99.90;;;;;;5116137;27;20020;-90
2024/03/17 02:22:14;;;;;;;8.05;6.13;;;8.80;99.90;;;;;;5116754;28;20019;-90
2024/03/17 02:24:40;;;;;;;12.55;5.75;;;8.70;99.90;;;;;;5115892;28;20074;-90
2024/03/17 02:27:05;;;;;;;12.82;5.78;;;8.70;99.90;;;;;;5116331;28;20121;-90
2024/03/17 02:29:31;;;;;;;6.50;5.63;;;8.70;99.90;;;;;;5131489;27;20027;-90
2024/03/17 02:31:56;;;;;;;9.15;5.85;;;8.70;99.90;;;;;;5136200;27;20023;-89
2024/03/17 02:34:22;;;;;;;10.52;7.50;;;8.70;99.90;;;;;;5136595;27;20029;-90
2024/03/17 02:36:47;;;;;;;10.25;6.57;;;8.70;99.90;;;;;;5136457;27;20051;-89
2024/03/17 02:41:57;;;;;;;9.35;6.50;;;8.70;99.90;;;;;;5127372;27;20042;-89
2024/03/17 02:44:23;;;;;;;8.52;6.70;;;8.60;99.90;;;;;;5116618;27;20027;-88
2024/03/17 02:46:48;;;;;;;10.52;5.88;;;8.60;99.90;;;;;;5129906;27;20034;-89
2024/03/17 02:49:17;;;;;;;6.35;5.75;;;8.60;99.90;;;;;;5142169;27;20133;-89
2024/03/17 02:51:43;;;;;;;7.03;5.80;;;8.60;99.90;;;;;;5140114;27;20055;-89
2024/03/17 02:54:09;;;;;;;7.07;5.82;;;8.60;99.90;;;;;;5135321;27;20043;-89
2024/03/17 02:56:35;;;;;;;10.82;6.70;;;8.60;99.90;;;;;;5139874;27;20042;-92
2024/03/17 02:59:00;;;;;;;8.27;6.32;;;8.70;99.90;;;;;;5141674;27;20015;-92
2024/03/17 03:01:26;;;;;;;7.68;6.07;;;8.70;99.90;;;;;;5138790;27;20035;-94
2024/03/17 03:03:52;;;;;;;8.23;6.03;;;8.60;99.90;;;;;;5117602;27;20023;-93
2024/03/17 03:06:19;;;;;;;7.70;6.55;;;8.60;99.90;;;;;;5128059;28;20019;-92
2024/03/17 03:08:48;;;;;;;9.63;6.13;;;8.70;99.90;;;;;;5121194;28;20082;-91
2024/03/17 03:11:15;;;;;;;8.40;6.55;;;8.60;99.90;;;;;;5133527;27;20059;-91
2024/03/17 03:13:42;;;;;;;8.90;6.40;;;8.60;99.90;;;;;;5135771;27;20811;-92
2024/03/17 03:16:10;;;;;;;11.82;6.07;;;8.60;99.90;;;;;;5135752;27;20030;-93
2024/03/17 03:18:40;;;;;;;12.45;6.40;;;8.60;99.90;;;;;;5135987;27;20025;-91
2024/03/17 03:21:06;;;;;;;9.25;5.90;;;8.60;99.90;;;;;;5135944;27;20057;-92
2024/03/17 03:23:32;;;;;;;8.88;6.53;;;8.60;99.90;;;;;;5135634;27;20047;-91
2024/03/17 03:25:59;;;;;;;9.23;6.32;;;8.60;99.90;;;;;;5134966;27;20023;-92
2024/03/17 03:28:26;;;;;;;8.55;6.28;;;8.90;99.90;;;;;;5133687;27;20102;-92
2024/03/17 03:30:52;;;;;;;6.85;6.13;;;8.60;99.90;;;;;;5132216;27;20083;-92
2024/03/17 03:33:18;;;;;;;10.38;6.38;;;8.60;99.90;;;;;;5134718;27;20113;-92
2024/03/17 03:35:45;;;;;;;7.50;6.10;;;8.60;99.90;;;;;;5135108;27;20023;-92
2024/03/17 03:38:11;;;;;;;7.93;6.07;;;8.60;99.90;;;;;;5122878;27;20019;-92
2024/03/17 03:40:37;;;;;;;8.68;6.82;;;8.60;99.90;;;;;;5134960;27;20049;-92
2024/03/17 03:43:02;;;;;;;10.55;6.30;;;8.60;99.90;;;;;;5135986;27;20433;-93
2024/03/17 03:45:28;;;;;;;9.15;5.60;;;8.70;99.90;;;;;;5135037;27;20019;-93
2024/03/17 03:47:53;;;;;;;11.13;6.18;;;8.60;99.90;;;;;;5134762;27;20028;-93
2024/03/17 03:50:21;;;;;;;7.05;5.93;;;8.70;99.90;;;;;;5120901;27;20030;-94
2024/03/17 03:52:47;;;;;;;9.73;6.22;;;8.70;99.90;;;;;;5114093;28;20020;-92
2024/03/17 03:55:15;;;;;;;9.60;7.03;;;8.70;99.90;;;;;;5123561;27;20046;-93
2024/03/17 03:57:47;;;;;;;9.93;5.95;;;8.70;99.90;;;;;;5134902;27;20024;-93
2024/03/17 04:00:21;;;;;;;8.38;6.38;;;8.70;99.90;;;;;;5147668;27;20051;-93
2024/03/17 04:02:51;;;;;;;7.47;5.95;;;8.70;99.90;;;;;;5145425;27;20027;-93
2024/03/17 04:05:20;;;;;;;8.73;6.28;;;8.70;99.90;;;;;;5136154;27;20042;-93
2024/03/17 04:07:47;;;;;;;10.90;6.95;;;8.70;99.90;;;;;;5129606;27;20015;-92
2024/03/17 04:10:14;;;;;;;10.77;6.70;;;8.70;99.90;;;;;;5134088;27;20725;-94
2024/03/17 04:12:40;;;;;;;9.30;6.03;;;8.70;99.90;;;;;;5125881;27;20391;-92
2024/03/17 04:15:06;;;;;;;12.70;6.50;;;8.70;99.90;;;;;;5113764;28;20023;-91
2024/03/17 04:17:33;;;;;;;9.70;6.60;;;8.60;99.90;;;;;;5114121;28;20081;-91
2024/03/17 04:19:59;;;;;;;8.32;7.03;;;8.60;99.90;;;;;;5128406;27;20031;-92
2024/03/17 04:22:25;;;;;;;7.72;6.18;;;8.60;99.90;;;;;;5133976;28;20019;-91
2024/03/17 04:24:54;;;;;;;7.95;5.38;;;8.60;99.90;;;;;;5128914;28;20046;-92
2024/03/17 04:27:23;;;;;;;8.30;6.03;;;8.60;99.90;;;;;;5113714;28;20031;-91
2024/03/17 04:29:49;;;;;;;6.65;5.82;;;8.60;99.90;;;;;;5119163;28;20031;-90
2024/03/17 04:32:15;;;;;;;6.70;6.10;;;8.50;99.90;;;;;;5134503;28;20027;-93
2024/03/17 04:34:43;;;;;;;9.75;6.43;;;8.50;99.90;;;;;;5134412;28;20016;-94
2024/03/17 04:37:10;;;;;;;10.27;6.65;;;8.50;99.90;;;;;;5131509;28;20466;-92
2024/03/17 04:39:37;;;;;;;8.20;6.63;;;8.50;99.90;;;;;;5121760;28;20028;-92
2024/03/17 04:42:04;;;;;;;8.57;6.47;;;8.50;99.90;;;;;;5133544;28;20110;-93
2024/03/17 04:44:29;;;;;;;10.27;6.68;;;8.50;99.90;;;;;;5134811;28;20027;-92
2024/03/17 04:46:55;;;;;;;10.57;6.65;;;8.50;99.90;;;;;;5134084;28;20184;-92
2024/03/17 04:49:20;;;;;;;7.53;6.45;;;8.50;99.90;;;;;;5113538;28;20023;-94
2024/03/17 04:51:46;;;;;;;7.55;6.13;;;8.50;99.90;;;;;;5113954;28;20485;-92
2024/03/17 04:54:12;;;;;;;12.52;7.47;;;8.50;99.90;;;;;;5118926;28;20028;-92
2024/03/17 04:56:37;;;;;;;7.13;6.43;;;8.50;99.90;;;;;;5151870;27;20062;-92
2024/03/17 04:59:03;;;;;;;12.65;6.85;;;8.50;99.90;;;;;;5132836;28;20355;-93
2024/03/17 05:01:31;;;;;;;9.57;6.20;;;8.40;99.90;;;;;;5134436;27;20043;-92
2024/03/17 05:03:56;;;;;;;9.68;7.70;;;8.40;99.90;;;;;;5137941;27;20050;-91
2024/03/17 05:06:22;;;;;;;7.45;6.75;;;8.40;99.90;;;;;;5138127;27;20371;-91
2024/03/17 05:08:47;;;;;;;9.05;7.13;;;8.30;99.90;;;;;;5138156;27;20090;-91
2024/03/17 05:11:15;;;;;;;10.88;6.97;;;8.30;99.90;;;;;;5134778;27;20027;-92
2024/03/17 05:13:41;;;;;;;9.90;7.50;;;8.30;99.90;;;;;;5137836;27;20027;-91
2024/03/17 05:16:07;;;;;;;11.85;7.78;;;8.30;99.90;;;;;;5137828;27;20030;-91
2024/03/17 05:18:32;;;;;;;10.13;7.68;;;8.20;99.90;;;;;;5137197;27;20671;-91
2024/03/17 05:21:06;;;;;;;8.68;7.60;;;8.70;99.90;;;;;;5130098;27;20038;-91
2024/03/17 05:23:34;;;;;;;12.90;7.85;;;8.20;99.90;;;;;;5128043;27;20039;-91
2024/03/17 05:26:00;;;;;;;8.20;7.25;;;8.20;99.90;;;;;;5136321;27;20023;-91
2024/03/17 05:28:27;;;;;;;9.45;6.75;;;8.20;99.90;;;;;;5137478;27;20458;-90
2024/03/17 05:30:53;;;;;;;10.65;7.07;;;8.20;99.90;;;;;;5137569;27;20027;-91
2024/03/17 05:33:21;;;;;;;9.40;7.30;;;8.20;99.90;;;;;;5137837;27;20478;-92
2024/03/17 05:35:55;;;;;;;8.73;7.38;;;8.20;99.90;;;;;;5137845;27;20023;-91
2024/03/17 05:38:21;;;;;;;9.10;6.70;;;8.20;99.90;;;;;;5137441;27;20194;-89
2024/03/17 05:41:01;;;;;;;10.93;7.47;;;8.20;99.90;;;;;;5111496;27;20383;-90
2024/03/17 05:43:40;;;;;;;8.02;6.93;;;8.30;99.90;;;;;;5116861;28;20109;-91
2024/03/17 05:46:07;;;;;;;10.00;7.53;;;8.30;99.90;;;;;;5116666;28;20053;-90
2024/03/17 05:48:34;;;;;;;8.30;7.45;;;8.30;99.90;;;;;;5124272;28;20031;-93
2024/03/17 05:51:02;;;;;;;11.50;7.65;;;8.30;99.90;;;;;;5139270;27;20058;-92
2024/03/17 05:53:28;;;;;;;16.48;7.82;;;8.30;99.90;;;;;;5138838;27;20039;-91
2024/03/17 05:55:55;;;;;;;9.25;7.68;;;8.30;99.90;;;;;;5137200;27;20023;-92
2024/03/17 05:58:20;;;;;;;14.60;8.13;;;8.30;99.90;;;;;;5137244;27;20023;-93
2024/03/17 06:00:46;;;;;;;7.93;7.20;;;8.30;99.90;;;;;;5118324;27;20383;-92
2024/03/17 06:03:12;;;;;;;9.02;6.93;;;8.30;99.90;;;;;;5116816;28;20477;-92
2024/03/17 06:05:42;;;;;;;12.63;7.80;;;8.30;99.90;;;;;;5135986;27;20054;-92
2024/03/17 06:08:08;;;;;;;9.93;7.80;;;8.30;99.90;;;;;;5131867;27;20053;-90
2024/03/17 06:10:35;;;;;;;12.30;8.57;;;8.20;99.90;;;;;;5130169;27;20096;-91
2024/03/17 06:13:01;;;;;;;9.60;8.00;;;8.20;99.90;;;;;;5135832;27;20023;-91
2024/03/17 06:15:27;;;;;;;11.70;8.40;;;8.20;99.90;;;;;;5137152;27;20031;-91
2024/03/17 06:17:54;;;;;;;10.00;8.10;;;8.20;99.90;;;;;;5136005;27;20507;-91
2024/03/17 06:20:26;;;;;;;10.43;7.68;;;8.20;99.90;;;;;;5138375;27;20057;-92
2024/03/17 06:22:52;;;;;;;11.02;8.75;;;8.20;99.90;;;;;;5120557;27;20513;-94
2024/03/17 06:25:18;;;;;;;12.80;8.57;;;8.20;99.90;;;;;;5130487;27;20051;-94
2024/03/17 06:27:44;;;;;;;13.27;9.23;;;8.20;99.90;;;;;;5119666;27;20047;-92
2024/03/17 06:30:16;;;;;;;13.52;8.63;;;8.20;99.90;;;;;;5136959;27;20023;-93
2024/03/17 06:32:42;;;;;;;10.30;9.00;;;8.20;99.90;;;;;;5133448;27;20066;-93
2024/03/17 06:35:08;;;;;;;13.70;8.95;;;8.20;99.90;;;;;;5128537;27;20016;-93
2024/03/17 06:37:35;;;;;;;10.27;8.93;;;8.20;99.90;;;;;;5116050;28;20063;-93
2024/03/17 06:40:03;;;;;;;11.35;8.95;;;8.30;99.90;;;;;;5121824;28;20036;-93
2024/03/17 06:42:30;;;;;;;10.85;8.52;;;8.30;99.90;;;;;;5132419;27;20011;-93
2024/03/17 06:44:55;;;;;;;11.52;7.85;;;8.30;99.90;;;;;;5156303;27;20058;-93
2024/03/17 06:47:21;;;;;;;11.10;8.95;;;8.80;99.90;;;;;;5128629;27;20028;-93
2024/03/17 06:49:46;;;;;;;9.43;8.27;;;8.40;99.90;;;;;;5134416;27;20111;-93
2024/03/17 06:52:12;;;;;;;13.30;8.95;;;8.30;99.90;;;;;;5130999;27;20424;-93
2024/03/17 06:54:38;;;;;;;11.20;7.78;;;8.40;99.90;;;;;;5127862;27;20543;-93
2024/03/17 06:57:03;;;;;;;10.88;8.48;;;8.40;99.90;;;;;;5134964;27;20458;-94
2024/03/17 06:59:33;;;;;;;10.05;8.35;;;8.40;99.90;;;;;;5129200;27;20034;-93
2024/03/17 07:01:58;;;;;;;13.88;9.50;;;9.00;99.90;;;;;;5121546;27;20057;-93
2024/03/17 07:04:24;;;;;;;13.52;8.73;;;9.30;99.90;;;;;;5135414;27;20023;-92
2024/03/17 07:06:50;;;;;;;9.25;7.82;;;8.10;99.90;;;;;;5136346;27;20024;-93
2024/03/17 07:09:17;;;;;;;11.10;8.15;;;10.00;99.90;;;;;;5136644;27;20019;-93
2024/03/17 07:11:44;;;;;;;10.80;8.27;;;9.30;99.90;;;;;;5131966;27;20015;-94
2024/03/17 07:14:09;;;;;;;11.82;8.82;;;9.50;99.90;;;;;;5135437;27;20493;-92
2024/03/17 07:16:35;;;;;;;14.00;8.85;;;8.60;99.90;;;;;;5130458;27;20023;-93
2024/03/17 07:19:02;;;;;;;14.35;8.75;;;9.90;99.90;;;;;;5127122;27;20023;-93
2024/03/17 07:21:28;;;;;;;9.20;8.30;;;8.70;99.90;;;;;;5135358;27;20145;-93
2024/03/17 07:23:53;;;;;;;9.32;8.38;;;10.00;99.90;;;;;;5135239;27;20061;-94
2024/03/17 07:26:19;;;;;;;10.60;8.45;;;9.50;99.90;;;;;;5124997;27;20030;-94
2024/03/17 07:28:44;;;;;;;10.27;9.15;;;9.80;99.90;;;;;;5136136;27;20106;-93
2024/03/17 07:31:10;;;;;;;10.45;8.20;;;9.60;99.90;;;;;;5135504;27;20068;-93
2024/03/17 07:33:36;;;;;;;13.13;7.50;;;8.90;99.90;;;;;;5135460;27;20038;-93
2024/03/17 07:36:02;;;;;;;11.88;8.80;;;9.00;99.90;;;;;;5137935;27;20015;-93
2024/03/17 07:38:30;;;;;;;13.57;8.13;;;9.00;99.90;;;;;;5156898;27;20023;-94
2024/03/17 07:41:03;;;;;;;11.50;7.93;;;9.50;99.90;;;;;;5140515;27;20039;-92
2024/03/17 07:43:31;;;;;;;10.85;8.52;;;9.00;99.90;;;;;;5136406;27;20470;-91
2024/03/17 07:46:07;;;;;;;11.18;8.23;;;10.40;99.90;;;;;;5132436;27;20036;-91
2024/03/17 07:48:34;;;;;;;8.18;7.43;;;9.10;99.90;;;;;;5121789;27;20015;-92
2024/03/17 07:51:04;;;;;;;10.98;7.68;;;10.10;99.90;;;;;;5136098;27;20023;-93
2024/03/17 07:53:30;;;;;;;8.65;7.85;;;10.10;99.90;;;;;;5129569;27;20467;-92
2024/03/17 07:56:05;;;;;;;11.95;8.07;;;9.90;99.90;;;;;;5131260;27;20031;-93
2024/03/17 07:58:37;;;;;;;11.23;8.13;;;9.10;99.90;;;;;;5133886;27;20025;-92
2024/03/17 08:01:05;;;;;;;11.23;8.23;;;9.20;99.90;;;;;;5132719;27;20036;-92
2024/03/17 08:03:32;;;;;;;10.70;7.78;;;10.00;99.90;;;;;;5131056;27;20019;-91
2024/03/17 08:05:58;;;;;;;8.43;7.50;;;10.20;99.90;;;;;;5134616;27;20428;-93
2024/03/17 08:08:24;;;;;;;11.50;8.60;;;9.40;99.90;;;;;;5129659;27;20044;-93
2024/03/17 08:10:50;;;;;;;9.70;8.70;;;9.40;99.90;;;;;;5118864;27;20031;-94
2024/03/17 08:13:19;;;;;;;9.40;8.05;;;10.40;99.90;;;;;;5126809;27;20048;-93
2024/03/17 08:15:46;;;;;;;9.32;7.68;;;9.50;99.90;;;;;;5119967;27;20058;-92
2024/03/17 08:18:15;;;;;;;10.25;7.43;;;9.90;99.90;;;;;;5128352;28;20023;-93
2024/03/17 08:20:46;;;;;;;13.15;8.43;;;9.50;99.90;;;;;;5123060;27;20034;-93
2024/03/17 08:23:12;;;;;;;8.68;7.78;;;10.30;99.90;;;;;;5134800;27;20023;-93
2024/03/17 08:25:38;;;;;;;9.98;7.93;;;9.90;99.90;;;;;;5134618;28;20106;-94
2024/03/17 08:28:04;;;;;;;11.90;8.65;;;9.50;99.90;;;;;;5136887;28;20120;-92
2024/03/17 08:30:32;;;;;;;11.57;7.88;;;9.50;99.90;;;;;;5135984;28;20050;-93
2024/03/17 08:32:58;;;;;;;8.48;7.57;;;9.50;99.90;;;;;;5130786;28;20034;-94
2024/03/17 08:35:24;;;;;;;13.48;8.52;;;10.50;99.90;;;;;;5130778;28;20063;-94
2024/03/17 08:37:56;;;;;;;10.43;8.43;;;9.50;99.90;;;;;;5127295;27;20016;-92
2024/03/17 08:40:22;;;;;;;9.20;8.23;;;9.50;99.90;;;;;;5135504;27;20032;-92
2024/03/17 08:42:48;;;;;;;10.50;8.70;;;10.40;99.90;;;;;;5140830;27;20019;-93
2024/03/17 08:45:14;;;;;;;10.23;8.90;;;10.20;99.90;;;;;;5139224;27;20023;-91
2024/03/17 08:47:40;;;;;;;10.57;7.97;;;10.00;99.90;;;;;;5140104;27;20363;-94
2024/03/17 08:50:08;;;;;;;12.13;8.32;;;9.60;99.90;;;;;;5126239;27;20024;-93
2024/03/17 08:52:36;;;;;;;12.15;8.68;;;9.30;99.90;;;;;;5122003;27;20055;-93
2024/03/17 08:55:09;;;;;;;10.90;9.10;;;10.30;99.90;;;;;;5116776;27;20044;-93
2024/03/17 08:57:35;;;;;;;12.55;8.73;;;9.60;99.90;;;;;;5125028;27;20042;-92
2024/03/17 09:00:01;;;;;;;9.65;8.45;;;10.50;99.90;;;;;;5140010;27;20023;-92
2024/03/17 09:02:27;;;;;;;9.90;8.73;;;9.60;99.90;;;;;;5139755;27;20064;-91
2024/03/17 09:04:55;;;;;;;11.55;8.35;;;9.60;99.90;;;;;;5137281;27;20023;-91
2024/03/17 09:07:21;;;;;;;12.57;8.85;;;9.60;99.90;;;;;;5121898;27;20023;-90
2024/03/17 09:09:48;;;;;;;9.55;8.07;;;10.00;99.90;;;;;;5128535;27;20401;-87
2024/03/17 09:12:13;;;;;;;9.23;8.07;;;9.70;99.90;;;;;;5122718;27;20035;-84
2024/03/17 09:14:40;;;;;;;13.10;8.00;;;9.70;99.90;;;;;;5119860;27;20021;-87
2024/03/17 09:17:06;;;;;;;9.02;8.13;;;9.80;99.90;;;;;;5128499;27;20055;-85
2024/03/17 09:19:33;;;;;;;13.27;8.75;;;9.80;99.90;;;;;;5134000;27;20462;-87
2024/03/17 09:21:59;;;;;;;10.20;8.55;;;9.80;99.90;;;;;;5125606;27;20047;-88
2024/03/17 09:24:24;;;;;;;9.32;7.38;;;9.80;99.90;;;;;;5137327;27;20032;-90
2024/03/17 09:26:59;;;;;;;11.88;8.20;;;10.40;99.90;;;;;;5125430;27;20450;-88
2024/03/17 09:29:24;;;;;;;12.30;8.65;;;9.90;99.90;;;;;;5128730;27;20110;-93
2024/03/17 09:31:51;;;;;;;9.43;8.50;;;10.00;99.90;;;;;;5121167;27;20114;-90
2024/03/17 09:34:17;;;;;;;11.95;7.95;;;10.00;99.90;;;;;;5129786;27;20035;-89
2024/03/17 09:36:44;;;;;;;16.80;9.05;;;10.00;99.90;;;;;;5125358;27;20075;-89
2024/03/17 09:39:11;;;;;;;9.50;8.20;;;10.40;99.90;;;;;;5120784;27;20475;-89
2024/03/17 09:41:38;;;;;;;10.07;8.88;;;10.00;99.90;;;;;;5121991;27;20043;-89
2024/03/17 09:44:13;;;;;;;11.15;8.30;;;10.10;99.90;;;;;;5133850;27;20035;-94
2024/03/17 09:46:42;;;;;;;12.05;8.35;;;10.20;99.90;;;;;;5140725;27;20042;-93
2024/03/17 09:49:17;;;;;;;11.43;8.38;;;10.60;99.90;;;;;;5133682;27;20023;-94
2024/03/17 09:51:43;;;;;;;9.93;8.40;;;10.80;99.90;;;;;;5132780;27;20021;-90
2024/03/17 09:54:22;;;;;;;8.85;7.00;;;10.30;99.90;;;;;;5129395;27;20120;-91
2024/03/17 09:56:47;;;;;;;14.73;8.27;;;10.30;99.90;;;;;;5137336;27;20023;-88
2024/03/17 09:59:13;;;;;;;9.50;7.68;;;10.40;99.90;;;;;;5133246;27;20038;-91
2024/03/17 10:01:39;;;;;;;9.32;8.40;;;10.40;99.90;;;;;;5135085;27;20029;-92
2024/03/17 10:04:10;;;;;;;12.60;8.27;;;10.50;99.90;;;;;;5132825;27;20036;-90
2024/03/17 10:06:47;;;;;;;13.15;7.97;;;10.70;99.90;;;;;;5136688;27;20027;-91
2024/03/17 10:09:22;;;;;;;8.65;7.65;;;10.60;99.90;;;;;;5135865;27;20016;-90
2024/03/17 10:11:47;;;;;;;8.55;7.65;;;10.60;99.90;;;;;;5137001;27;20023;-91
2024/03/17 10:14:17;;;;;;;8.85;7.90;;;11.80;99.90;;;;;;5138809;27;20131;-91
2024/03/17 10:16:44;;;;;;;12.70;8.07;;;11.80;99.90;;;;;;5153718;27;20034;-90
2024/03/17 10:19:24;;;;;;;12.70;7.93;;;10.80;99.90;;;;;;5141816;27;20027;-92
2024/03/17 10:21:57;;;;;;;12.13;8.27;;;10.80;99.90;;;;;;5128427;27;20127;-88
2024/03/17 10:24:30;;;;;;;8.73;7.82;;;10.90;99.90;;;;;;5123931;27;20027;-90
2024/03/17 10:26:58;;;;;;;8.32;7.53;;;11.90;99.90;;;;;;5131126;27;20102;-91
2024/03/17 10:29:32;;;;;;;10.05;7.75;;;10.90;99.90;;;;;;5136623;27;20094;-92
2024/03/17 10:32:01;;;;;;;11.57;7.93;;;10.90;99.90;;;;;;5136625;27;20031;-91
2024/03/17 10:34:37;;;;;;;9.48;7.43;;;10.90;99.90;;;;;;5136869;27;20027;-90
2024/03/17 10:37:11;;;;;;;9.02;7.70;;;10.90;99.90;;;;;;5131799;27;20032;-90
2024/03/17 10:39:40;;;;;;;10.60;7.40;;;10.90;99.90;;;;;;5114546;27;20405;-88
2024/03/17 10:42:14;;;;;;;8.45;7.63;;;10.90;99.90;;;;;;5137413;27;20079;-90
2024/03/17 10:44:41;;;;;;;12.30;8.25;;;10.90;99.90;;;;;;5137559;27;20016;-90
2024/03/17 10:47:14;;;;;;;13.15;8.40;;;10.90;99.90;;;;;;5138214;27;20084;-91
2024/03/17 10:49:39;;;;;;;10.13;8.80;;;10.90;99.90;;;;;;5127419;27;20104;-92
2024/03/17 10:52:15;;;;;;;10.90;8.15;;;10.90;99.90;;;;;;5136544;27;20050;-92
2024/03/17 10:54:48;;;;;;;13.23;7.78;;;11.00;99.90;;;;;;5136611;27;20039;-94
2024/03/17 10:57:35;;;;;;;9.45;8.38;;;11.00;99.90;;;;;;5135697;27;20483;-92
2024/03/17 11:00:07;;;;;;;10.20;7.82;;;11.10;99.90;;;;;;5125946;27;20390;-91
2024/03/17 11:02:35;;;;;;;10.35;7.68;;;11.10;99.90;;;;;;5127294;27;20043;-90
2024/03/17 11:05:23;;;;;;;8.90;7.82;;;11.20;99.90;;;;;;5131597;27;20031;-92
2024/03/17 11:07:51;;;;;;;11.30;8.15;;;11.20;99.90;;;;;;5116099;28;20514;-90
2024/03/17 11:10:29;;;;;;;12.38;8.30;;;11.20;99.90;;;;;;5136599;27;20038;-89
2024/03/17 11:12:58;;;;;;;10.57;7.90;;;11.30;99.90;;;;;;5136482;27;20054;-91
2024/03/17 11:15:29;;;;;;;12.93;8.30;;;11.30;99.90;;;;;;5131786;27;20039;-90
2024/03/17 11:18:21;;;;;;;12.10;7.70;;;11.80;99.90;;;;;;5106887;28;20031;-89
2024/03/17 11:21:07;;;;;;;10.63;8.00;;;11.50;99.90;;;;;;5123372;27;20035;-90
2024/03/17 11:23:33;;;;;;;11.18;8.60;;;11.50;99.90;;;;;;5134655;27;20037;-91
2024/03/17 11:25:59;;;;;;;11.57;8.05;;;11.60;99.90;;;;;;5128196;27;20409;-90
2024/03/17 11:28:49;;;;;;;10.15;7.30;;;11.70;99.90;;;;;;5136051;27;20023;-91
2024/03/17 11:31:46;;;;;;;10.32;8.82;;;11.70;99.90;;;;;;5135266;27;20019;-91
2024/03/17 11:34:28;;;;;;;8.48;7.57;;;11.80;99.90;;;;;;5093936;28;20043;-91
2024/03/17 11:36:54;;;;;;;9.93;7.45;;;11.90;99.90;;;;;;5126681;27;20068;-91
2024/03/17 11:39:25;;;;;;;13.60;8.07;;;11.90;99.90;;;;;;5134783;27;20096;-90
2024/03/17 11:41:51;;;;;;;14.13;7.88;;;12.00;99.90;;;;;;5135042;27;20076;-89
2024/03/17 11:44:20;;;;;;;10.10;7.38;;;12.00;99.90;;;;;;5135704;27;20034;-91
2024/03/17 11:46:55;;;;;;;13.32;7.68;;;12.00;99.90;;;;;;5132035;27;20027;-90
2024/03/17 11:49:28;;;;;;;11.05;7.45;;;12.10;99.90;;;;;;5136066;27;20033;-90
2024/03/17 11:51:59;;;;;;;7.75;6.65;;;12.10;99.90;;;;;;5135527;27;20066;-89
2024/03/17 11:54:30;;;;;;;8.20;6.75;;;12.20;99.90;;;;;;5124319;27;20055;-90
2024/03/17 11:57:10;;;;;;;10.60;6.85;;;12.20;99.90;;;;;;5136738;27;20031;-91
2024/03/17 11:59:37;;;;;;;12.13;7.37;;;12.20;99.90;;;;;;5138475;27;20031;-89
2024/03/17 12:02:17;;;;;;;7.35;6.57;;;12.30;99.90;;;;;;5137520;27;20360;-90
2024/03/17 12:04:43;;;;;;;9.02;6.68;;;12.30;99.90;;;;;;5136181;27;20075;-90
2024/03/17 12:07:13;;;;;;;9.32;7.03;;;12.30;99.90;;;;;;5116546;27;20405;-91
2024/03/17 12:09:41;;;;;;;8.48;6.38;;;12.30;99.90;;;;;;5117717;27;20028;-91
2024/03/17 12:12:13;;;;;;;8.65;7.03;;;12.30;99.90;;;;;;5129873;27;20031;-94
2024/03/17 12:14:39;;;;;;;7.13;6.45;;;12.30;99.90;;;;;;5134458;27;20030;-92
2024/03/17 12:17:07;;;;;;;9.13;7.18;;;12.30;99.90;;;;;;5135409;27;20019;-92
2024/03/17 12:19:34;;;;;;;7.43;6.40;;;12.40;99.90;;;;;;5131262;27;20229;-91
2024/03/17 12:22:02;;;;;;;9.88;6.97;;;12.40;99.90;;;;;;5113783;28;20052;-90
2024/03/17 12:24:29;;;;;;;15.70;7.03;;;12.50;99.90;;;;;;5103035;28;20023;-93
2024/03/17 12:26:59;;;;;;;9.77;6.63;;;12.50;99.90;;;;;;5114014;28;20027;-92
2024/03/17 12:29:41;;;;;;;7.53;6.00;;;12.60;99.90;;;;;;5095207;28;20024;-91
2024/03/17 12:32:14;;;;;;;9.00;6.43;;;12.70;99.90;;;;;;5095035;28;20097;-91
2024/03/17 12:34:41;;;;;;;10.48;6.85;;;12.80;99.90;;;;;;5093308;28;20024;-91
2024/03/17 12:37:07;;;;;;;9.45;6.97;;;12.90;99.90;;;;;;5093858;28;20031;-91
2024/03/17 12:39:35;;;;;;;16.40;7.28;;;12.90;99.90;;;;;;5093972;28;20042;-92
2024/03/17 12:42:25;;;;;;;10.23;6.97;;;13.10;99.90;;;;;;5093432;28;20036;-92
2024/03/17 12:44:55;;;;;;;8.80;7.07;;;13.10;99.90;;;;;;5084168;28;20061;-92
2024/03/17 12:47:28;;;;;;;18.67;6.70;;;13.20;99.90;;;;;;5094220;28;20032;-92
2024/03/17 12:49:57;;;;;;;11.82;6.88;;;13.30;99.90;;;;;;5095277;28;20031;-92
2024/03/17 12:52:33;;;;;;;9.15;6.25;;;13.30;99.90;;;;;;5110211;28;20443;-92
2024/03/17 13:01:06;;;;;;;7.60;5.18;;;13.30;99.90;;;;;;5110004;28;20091;-93